Time;durP1;ratioP1;P1;durP2;ratioP2;P2;SDS_P1;SDS_P2;PMS_P1;PMS_P2;Temp;Humidity;BMP_temperature;BMP_pressure;BME280_temperature;BME280_humidity;BME280_pressure;Samples;Min_cycle;Max_cycle;Signal;HPM_P1;HPM_P2
2021/12/13 00:00:35;;;;;;;0.73;0.73;;;7.00;99.90;;;;;;5031278;28;20201;-66
2021/12/13 00:03:10;;;;;;;0.80;0.80;;;7.00;99.90;;;;;;5025706;28;20649;-63
2021/12/13 00:05:43;;;;;;;0.87;0.87;;;7.00;99.90;;;;;;5024748;28;20258;-66
2021/12/13 00:08:13;;;;;;;0.70;0.70;;;6.90;99.90;;;;;;5029085;28;20245;-63
2021/12/13 00:10:46;;;;;;;0.90;0.90;;;6.90;99.90;;;;;;5027474;28;20200;-65
2021/12/13 00:13:17;;;;;;;0.70;0.70;;;6.90;99.90;;;;;;5028957;28;20681;-66
2021/12/13 00:15:51;;;;;;;0.63;0.63;;;6.90;99.90;;;;;;5028089;28;20311;-66
2021/12/13 00:18:24;;;;;;;0.67;0.67;;;6.80;99.90;;;;;;5026719;28;20284;-67
2021/12/13 00:20:57;;;;;;;0.77;0.77;;;6.80;99.90;;;;;;5029753;28;20303;-66
2021/12/13 00:23:27;;;;;;;0.50;0.50;;;6.80;99.90;;;;;;5032997;28;20577;-66
2021/12/13 00:25:58;;;;;;;0.70;0.70;;;7.00;99.90;;;;;;5031203;28;20327;-63
2021/12/13 00:28:27;;;;;;;1.13;0.70;;;6.70;99.90;;;;;;5033725;28;20207;-64
2021/12/13 00:31:07;;;;;;;0.70;0.70;;;6.80;99.90;;;;;;5033611;28;20236;-64
2021/12/13 00:33:39;;;;;;;1.13;0.70;;;6.80;99.90;;;;;;5023900;28;20293;-65
2021/12/13 00:36:11;;;;;;;0.67;0.67;;;6.70;99.90;;;;;;5019784;28;20231;-64
2021/12/13 00:38:45;;;;;;;0.70;0.70;;;6.80;99.90;;;;;;5020020;28;20197;-64
2021/12/13 00:41:16;;;;;;;0.70;0.70;;;6.80;99.90;;;;;;5030827;28;20232;-64
2021/12/13 00:43:50;;;;;;;0.60;0.60;;;6.80;99.90;;;;;;5031999;28;20204;-66
2021/12/13 00:46:19;;;;;;;0.70;0.70;;;6.80;99.90;;;;;;5033617;28;20802;-68
2021/12/13 00:48:51;;;;;;;0.80;0.80;;;6.80;99.90;;;;;;5030857;28;20295;-65
2021/12/13 00:51:23;;;;;;;0.70;0.70;;;6.80;99.90;;;;;;5033394;28;20299;-64
2021/12/13 00:53:53;;;;;;;0.60;0.60;;;6.80;99.90;;;;;;5031549;28;20287;-64
2021/12/13 00:56:44;;;;;;;0.43;0.40;;;6.80;99.90;;;;;;5032902;28;20326;-65
2021/12/13 00:59:14;;;;;;;0.60;0.60;;;6.80;99.90;;;;;;5033826;28;20291;-65
2021/12/13 01:01:43;;;;;;;0.70;0.70;;;6.80;99.90;;;;;;5029232;28;20203;-66
2021/12/13 01:04:16;;;;;;;0.70;0.70;;;6.80;99.90;;;;;;5033353;28;20259;-64
2021/12/13 01:07:20;;;;;;;0.63;0.63;;;6.80;99.90;;;;;;5030491;28;20233;-67
2021/12/13 01:10:28;;;;;;;0.60;0.60;;;6.90;99.90;;;;;;5026082;28;20210;-64
2021/12/13 01:12:58;;;;;;;0.63;0.63;;;6.80;99.90;;;;;;5033580;28;20544;-65
2021/12/13 01:15:34;;;;;;;0.63;0.63;;;6.90;99.90;;;;;;5029724;28;20570;-66
2021/12/13 01:18:22;;;;;;;0.70;0.70;;;6.90;99.90;;;;;;5047020;28;20193;-67
2021/12/13 01:21:01;;;;;;;0.50;0.50;;;6.80;99.90;;;;;;5030783;28;20229;-67
2021/12/13 01:23:41;;;;;;;0.63;0.63;;;6.80;99.90;;;;;;5036693;28;20231;-65
2021/12/13 01:26:27;;;;;;;0.50;0.50;;;6.80;99.90;;;;;;5037204;28;20623;-65
2021/12/13 01:28:58;;;;;;;0.57;0.57;;;6.80;99.90;;;;;;5034252;28;20220;-66
2021/12/13 01:31:30;;;;;;;0.77;0.77;;;6.80;99.90;;;;;;5037911;28;20303;-66
2021/12/13 01:34:01;;;;;;;0.80;0.80;;;6.90;99.90;;;;;;5029338;28;20207;-67
2021/12/13 01:36:38;;;;;;;0.60;0.60;;;6.80;99.90;;;;;;5033773;28;20293;-64
2021/12/13 01:39:08;;;;;;;0.57;0.50;;;6.90;99.90;;;;;;5034796;28;20246;-65
2021/12/13 01:41:40;;;;;;;0.60;0.60;;;6.90;99.90;;;;;;5033408;28;20220;-65
2021/12/13 01:44:15;;;;;;;0.60;0.60;;;6.90;99.90;;;;;;5038256;28;20237;-66
2021/12/13 01:46:50;;;;;;;0.60;0.60;;;6.90;99.90;;;;;;5039078;28;20259;-65
2021/12/13 01:49:20;;;;;;;0.60;0.60;;;6.90;99.90;;;;;;5048447;28;20210;-68
2021/12/13 01:51:47;;;;;;;0.60;0.60;;;6.90;99.90;;;;;;5049947;28;20204;-66
2021/12/13 01:54:19;;;;;;;0.63;0.63;;;6.80;99.90;;;;;;5038753;28;20674;-66
2021/12/13 01:56:54;;;;;;;0.53;0.53;;;6.90;99.90;;;;;;5028153;28;20277;-65
2021/12/13 01:59:42;;;;;;;0.70;0.70;;;6.90;99.90;;;;;;5032819;28;20250;-65
2021/12/13 02:02:17;;;;;;;0.70;0.70;;;6.90;99.90;;;;;;5027515;28;20201;-66
2021/12/13 02:04:54;;;;;;;0.63;0.63;;;6.80;99.90;;;;;;5028920;28;20252;-64
2021/12/13 02:07:25;;;;;;;0.67;0.67;;;6.90;99.90;;;;;;5032134;28;20548;-66
2021/12/13 02:09:52;;;;;;;0.50;0.50;;;6.90;99.90;;;;;;5032297;28;20197;-64
2021/12/13 02:12:20;;;;;;;0.70;0.70;;;6.80;99.90;;;;;;5031453;28;20236;-66
2021/12/13 02:16:55;;;;;;;0.70;0.70;;;6.90;99.90;;;;;;5032589;28;20732;-66
2021/12/13 02:17:38;;;;;;;0.60;0.60;;;6.90;99.90;;;;;;5031185;28;20243;-66
2021/12/13 02:20:15;;;;;;;0.83;0.83;;;6.90;99.90;;;;;;5030801;28;20197;-66
2021/12/13 02:22:46;;;;;;;0.60;0.60;;;6.90;99.90;;;;;;5032449;28;20566;-65
2021/12/13 02:25:20;;;;;;;0.60;0.60;;;6.90;99.90;;;;;;5032285;28;20308;-65
2021/12/13 02:27:51;;;;;;;0.60;0.60;;;6.90;99.90;;;;;;5034326;28;20228;-65
2021/12/13 02:30:24;;;;;;;0.60;0.60;;;6.90;99.90;;;;;;5032396;28;20197;-66
2021/12/13 02:32:51;;;;;;;0.70;0.70;;;6.90;99.90;;;;;;5032019;28;20211;-66
2021/12/13 02:35:20;;;;;;;0.53;0.53;;;6.90;99.90;;;;;;5030698;28;20239;-66
2021/12/13 02:37:49;;;;;;;0.60;0.60;;;6.90;99.90;;;;;;5033138;28;20244;-65
2021/12/13 02:40:19;;;;;;;0.60;0.60;;;6.90;99.90;;;;;;5028618;28;20323;-66
2021/12/13 02:42:48;;;;;;;0.60;0.60;;;6.90;99.90;;;;;;5024336;28;20202;-65
2021/12/13 02:45:22;;;;;;;0.50;0.50;;;7.00;99.90;;;;;;5018077;28;20240;-65
2021/12/13 02:47:56;;;;;;;0.57;0.57;;;7.10;99.90;;;;;;5033029;28;20204;-66
2021/12/13 02:50:30;;;;;;;0.70;0.70;;;7.10;99.90;;;;;;5032820;28;20240;-64
2021/12/13 02:53:00;;;;;;;0.63;0.63;;;7.20;99.90;;;;;;5033029;28;20209;-64
2021/12/13 02:55:30;;;;;;;0.57;0.57;;;7.30;99.90;;;;;;5032497;28;20307;-66
2021/12/13 02:58:00;;;;;;;0.40;0.40;;;7.30;99.90;;;;;;5031660;28;20652;-65
2021/12/13 03:00:31;;;;;;;0.73;0.73;;;7.30;99.90;;;;;;5031337;28;20626;-66
2021/12/13 03:03:00;;;;;;;0.53;0.53;;;7.30;99.90;;;;;;5065806;22;20226;-63
2021/12/13 03:05:31;;;;;;;1.20;0.70;;;7.30;99.90;;;;;;5062773;28;20319;-61
2021/12/13 03:08:05;;;;;;;0.60;0.60;;;7.30;99.90;;;;;;5051663;28;20340;-61
2021/12/13 03:10:39;;;;;;;0.60;0.60;;;7.30;99.90;;;;;;5042416;28;20204;-62
2021/12/13 03:13:07;;;;;;;0.63;0.63;;;7.40;99.90;;;;;;5038496;28;20284;-61
2021/12/13 03:15:35;;;;;;;0.70;0.70;;;7.40;99.90;;;;;;5041998;28;20282;-61
2021/12/13 03:18:10;;;;;;;0.90;0.90;;;7.40;99.90;;;;;;5040981;28;20723;-62
2021/12/13 03:21:07;;;;;;;0.77;0.77;;;7.50;99.90;;;;;;5041242;28;20305;-61
2021/12/13 03:23:49;;;;;;;0.80;0.80;;;7.50;99.90;;;;;;4981137;28;20222;-60
2021/12/13 03:26:49;;;;;;;0.80;0.80;;;7.40;99.90;;;;;;5039905;28;20196;-63
2021/12/13 03:29:19;;;;;;;0.80;0.80;;;7.40;99.90;;;;;;5040228;28;20211;-63
2021/12/13 03:31:50;;;;;;;0.70;0.70;;;7.40;99.90;;;;;;5041392;28;21065;-62
2021/12/13 03:34:22;;;;;;;0.70;0.70;;;7.50;99.90;;;;;;5037691;28;20223;-63
2021/12/13 03:36:57;;;;;;;0.73;0.73;;;7.40;99.90;;;;;;5041116;28;20209;-62
2021/12/13 03:39:29;;;;;;;0.57;0.57;;;7.40;99.90;;;;;;5038751;28;20198;-62
2021/12/13 03:41:58;;;;;;;1.13;0.90;;;7.40;99.90;;;;;;5043959;28;20223;-61
2021/12/13 03:44:28;;;;;;;0.80;0.80;;;7.40;99.90;;;;;;5039516;28;20306;-62
2021/12/13 03:46:59;;;;;;;0.60;0.60;;;7.40;99.90;;;;;;5041158;28;20295;-61
2021/12/13 03:49:27;;;;;;;0.90;0.90;;;7.40;99.90;;;;;;5037957;28;20291;-61
2021/12/13 03:51:58;;;;;;;0.80;0.80;;;7.30;99.90;;;;;;5041338;28;20259;-62
2021/12/13 03:54:28;;;;;;;0.70;0.70;;;7.30;99.90;;;;;;5036482;28;20197;-60
2021/12/13 03:56:57;;;;;;;0.53;0.53;;;7.40;99.90;;;;;;5041088;28;20225;-62
2021/12/13 03:59:28;;;;;;;0.60;0.60;;;7.20;99.90;;;;;;5037621;28;20291;-62
2021/12/13 04:01:59;;;;;;;0.70;0.70;;;7.00;99.90;;;;;;5041395;28;20606;-62
2021/12/13 04:04:31;;;;;;;0.70;0.70;;;7.00;99.90;;;;;;5040259;28;20316;-62
2021/12/13 04:07:01;;;;;;;0.80;0.80;;;6.90;99.90;;;;;;5040958;28;20294;-62
2021/12/13 04:09:31;;;;;;;0.73;0.73;;;6.80;99.90;;;;;;5037169;28;20319;-60
2021/12/13 04:12:03;;;;;;;0.93;0.93;;;6.80;99.90;;;;;;5040408;28;20306;-61
2021/12/13 04:14:37;;;;;;;0.80;0.80;;;6.70;99.90;;;;;;5038422;28;20291;-61
2021/12/13 04:17:19;;;;;;;0.70;0.70;;;6.60;99.90;;;;;;5037422;28;20576;-63
2021/12/13 04:19:51;;;;;;;0.63;0.63;;;6.50;99.90;;;;;;5044044;28;20205;-62
2021/12/13 04:22:23;;;;;;;0.50;0.50;;;6.50;99.90;;;;;;5037625;28;20230;-62
2021/12/13 04:24:55;;;;;;;0.50;0.50;;;6.40;99.90;;;;;;5040460;28;20890;-62
2021/12/13 04:27:25;;;;;;;0.80;0.80;;;6.40;99.90;;;;;;5037314;28;20287;-61
2021/12/13 04:29:55;;;;;;;0.70;0.70;;;6.40;99.90;;;;;;5041137;28;20204;-62
2021/12/13 04:32:28;;;;;;;0.70;0.70;;;6.40;99.90;;;;;;5037418;28;20217;-63
2021/12/13 04:34:57;;;;;;;0.73;0.73;;;6.40;99.90;;;;;;5041603;28;20286;-62
2021/12/13 04:37:28;;;;;;;0.77;0.67;;;6.40;99.90;;;;;;5043214;28;20658;-61
2021/12/13 04:40:01;;;;;;;0.53;0.53;;;6.40;99.90;;;;;;5043433;28;20195;-62
2021/12/13 04:42:30;;;;;;;0.70;0.70;;;6.40;99.90;;;;;;5036676;28;20319;-61
2021/12/13 04:45:02;;;;;;;0.70;0.70;;;6.40;99.90;;;;;;5037745;28;20643;-61
2021/12/13 04:47:32;;;;;;;0.60;0.60;;;6.40;99.90;;;;;;5037552;28;20699;-61
2021/12/13 04:50:11;;;;;;;0.60;0.60;;;6.40;99.90;;;;;;5041227;28;20192;-62
2021/12/13 04:52:39;;;;;;;0.70;0.70;;;6.40;99.90;;;;;;5038546;28;20255;-61
2021/12/13 04:55:23;;;;;;;0.57;0.57;;;6.40;99.90;;;;;;5039317;28;20294;-61
2021/12/13 04:57:51;;;;;;;0.80;0.80;;;6.50;99.90;;;;;;5041627;28;20255;-61
2021/12/13 05:00:22;;;;;;;0.87;0.87;;;6.50;99.90;;;;;;5044031;28;20287;-63
2021/12/13 05:02:52;;;;;;;1.03;0.83;;;6.40;99.90;;;;;;5040922;28;20263;-62
2021/12/13 05:05:20;;;;;;;0.67;0.67;;;6.30;99.90;;;;;;5037220;28;20311;-61
2021/12/13 05:07:49;;;;;;;0.70;0.70;;;6.30;99.90;;;;;;5043485;28;20291;-63
2021/12/13 05:10:18;;;;;;;0.70;0.70;;;6.20;99.90;;;;;;5043378;28;20669;-61
2021/12/13 05:13:01;;;;;;;1.00;1.00;;;6.10;99.90;;;;;;5049994;28;20219;-61
2021/12/13 05:15:30;;;;;;;0.70;0.70;;;6.10;99.90;;;;;;5043269;28;20250;-60
2021/12/13 05:17:59;;;;;;;0.90;0.90;;;6.10;99.90;;;;;;5043952;28;20207;-61
2021/12/13 05:20:30;;;;;;;0.70;0.70;;;6.00;99.90;;;;;;5046203;28;20208;-61
2021/12/13 05:23:01;;;;;;;0.80;0.80;;;6.00;99.90;;;;;;5046929;28;20227;-62
2021/12/13 05:25:31;;;;;;;0.63;0.63;;;6.00;99.90;;;;;;5040933;28;20216;-61
2021/12/13 05:28:02;;;;;;;0.80;0.80;;;5.90;99.90;;;;;;5045100;28;20595;-60
2021/12/13 05:30:30;;;;;;;0.70;0.70;;;5.90;99.90;;;;;;5043260;28;20203;-61
2021/12/13 05:33:04;;;;;;;0.57;0.57;;;6.00;99.90;;;;;;5051683;28;20223;-62
2021/12/13 05:35:34;;;;;;;0.80;0.80;;;5.90;99.90;;;;;;5043382;28;20655;-60
2021/12/13 05:38:05;;;;;;;1.10;1.00;;;6.00;99.90;;;;;;5043432;28;20233;-61
2021/12/13 05:40:39;;;;;;;0.70;0.70;;;6.00;99.90;;;;;;5042443;28;20283;-61
2021/12/13 05:43:20;;;;;;;0.80;0.80;;;5.90;99.90;;;;;;5040056;28;20219;-61
2021/12/13 05:45:53;;;;;;;1.00;1.00;;;5.90;99.90;;;;;;5044289;28;20520;-61
2021/12/13 05:48:22;;;;;;;1.30;1.20;;;6.00;99.90;;;;;;5046096;28;20628;-61
2021/12/13 05:50:52;;;;;;;1.10;1.10;;;5.90;99.90;;;;;;5040298;28;20769;-61
2021/12/13 05:53:22;;;;;;;1.03;1.03;;;5.90;99.90;;;;;;5040310;28;20224;-61
2021/12/13 05:55:55;;;;;;;1.07;1.07;;;5.80;99.90;;;;;;5047818;28;20663;-61
2021/12/13 05:58:48;;;;;;;0.90;0.90;;;5.70;99.90;;;;;;5046194;28;20207;-61
2021/12/13 06:01:20;;;;;;;0.90;0.90;;;5.70;99.90;;;;;;5035372;28;20211;-61
2021/12/13 06:03:53;;;;;;;1.30;1.20;;;5.70;99.90;;;;;;5051672;28;20316;-61
2021/12/13 06:06:25;;;;;;;1.80;1.70;;;5.70;99.90;;;;;;5041264;28;20300;-63
2021/12/13 06:08:56;;;;;;;2.73;2.60;;;5.70;99.90;;;;;;5051176;28;20204;-62
2021/12/13 06:11:32;;;;;;;2.93;2.73;;;5.70;99.90;;;;;;5048108;28;20210;-62
2021/12/13 06:14:06;;;;;;;2.80;2.60;;;5.70;99.90;;;;;;5041582;28;20220;-62
2021/12/13 06:16:49;;;;;;;2.00;1.90;;;5.80;99.90;;;;;;5038797;28;20242;-61
2021/12/13 06:19:23;;;;;;;1.47;1.37;;;5.80;99.90;;;;;;5034327;28;20216;-62
2021/12/13 06:22:01;;;;;;;1.10;1.10;;;5.80;99.90;;;;;;5039511;28;20292;-62
2021/12/13 06:24:32;;;;;;;1.00;1.00;;;5.80;99.90;;;;;;5042265;28;20213;-61
2021/12/13 06:27:11;;;;;;;0.80;0.80;;;5.90;99.90;;;;;;5043556;28;20202;-62
2021/12/13 06:30:03;;;;;;;0.80;0.80;;;6.00;99.90;;;;;;5038838;28;20287;-61
2021/12/13 06:32:35;;;;;;;0.80;0.80;;;6.00;99.90;;;;;;5038579;28;20220;-61
2021/12/13 06:35:44;;;;;;;0.70;0.70;;;6.10;99.90;;;;;;5044332;28;20199;-61
2021/12/13 06:38:40;;;;;;;0.90;0.90;;;6.20;99.90;;;;;;5015834;28;20211;-62
2021/12/13 06:41:12;;;;;;;1.00;1.00;;;6.20;99.90;;;;;;5050865;28;20684;-61
2021/12/13 06:43:44;;;;;;;0.90;0.90;;;6.30;99.90;;;;;;5050498;28;20248;-61
2021/12/13 06:46:28;;;;;;;1.30;1.30;;;6.20;99.90;;;;;;5047872;28;20234;-61
2021/12/13 06:48:59;;;;;;;0.90;0.90;;;6.30;99.90;;;;;;5036678;28;20195;-63
2021/12/13 06:51:40;;;;;;;1.00;1.00;;;6.30;99.90;;;;;;5038458;28;20288;-61
2021/12/13 06:54:10;;;;;;;0.90;0.90;;;6.30;99.90;;;;;;5042166;28;20200;-61
2021/12/13 06:56:40;;;;;;;1.10;1.10;;;6.50;99.90;;;;;;5044194;28;20284;-62
2021/12/13 06:59:15;;;;;;;0.73;0.73;;;6.30;99.90;;;;;;5045427;28;20286;-60
2021/12/13 07:01:43;;;;;;;0.93;0.93;;;6.20;99.90;;;;;;5043256;28;20291;-62
2021/12/13 07:04:13;;;;;;;0.83;0.83;;;6.20;99.90;;;;;;5038840;28;20200;-61
2021/12/13 07:06:40;;;;;;;0.90;0.90;;;6.20;99.90;;;;;;5046267;28;20295;-61
2021/12/13 07:09:14;;;;;;;0.90;0.90;;;6.10;99.90;;;;;;5048317;28;20210;-61
2021/12/13 07:11:46;;;;;;;0.90;0.90;;;6.00;99.90;;;;;;5049255;28;20318;-61
2021/12/13 07:14:16;;;;;;;0.93;0.93;;;5.90;99.90;;;;;;5041351;28;20205;-61
2021/12/13 07:16:47;;;;;;;0.90;0.90;;;5.90;99.90;;;;;;5053279;28;20295;-61
2021/12/13 07:19:19;;;;;;;0.90;0.90;;;5.80;99.90;;;;;;5053218;28;20204;-61
2021/12/13 07:21:54;;;;;;;0.90;0.90;;;5.80;99.90;;;;;;5049605;28;20678;-62
2021/12/13 07:24:29;;;;;;;1.27;1.10;;;5.80;99.90;;;;;;5047925;28;20282;-62
2021/12/13 07:27:04;;;;;;;1.00;1.00;;;5.80;99.90;;;;;;5050429;28;20306;-60
2021/12/13 07:29:39;;;;;;;1.20;1.20;;;5.80;99.90;;;;;;5048026;28;20200;-63
2021/12/13 07:32:10;;;;;;;1.00;1.00;;;5.70;99.90;;;;;;5048903;28;20566;-61
2021/12/13 07:34:50;;;;;;;1.17;1.13;;;5.70;99.90;;;;;;5051640;28;20295;-61
2021/12/13 07:37:18;;;;;;;1.13;1.13;;;5.70;99.90;;;;;;5041437;28;20684;-62
2021/12/13 07:39:45;;;;;;;1.10;1.10;;;5.80;99.90;;;;;;5045443;28;20289;-60
2021/12/13 07:42:14;;;;;;;1.20;1.20;;;5.90;99.90;;;;;;5053256;28;20223;-62
2021/12/13 07:44:44;;;;;;;1.10;1.10;;;5.90;99.90;;;;;;5052079;28;20212;-63
2021/12/13 07:47:15;;;;;;;1.47;1.07;;;6.00;99.90;;;;;;5045459;28;20308;-61
2021/12/13 07:49:45;;;;;;;1.00;1.00;;;6.00;99.90;;;;;;5061514;28;20231;-61
2021/12/13 07:52:25;;;;;;;1.30;1.20;;;5.90;99.90;;;;;;5057682;28;20250;-61
2021/12/13 07:54:53;;;;;;;1.20;1.20;;;6.00;99.90;;;;;;5052198;28;20195;-61
2021/12/13 07:57:23;;;;;;;1.20;1.20;;;6.00;99.90;;;;;;5052197;28;20228;-61
2021/12/13 07:59:53;;;;;;;1.10;1.10;;;6.10;99.90;;;;;;5056351;28;20204;-61
2021/12/13 08:02:25;;;;;;;0.93;0.93;;;6.10;99.90;;;;;;5049288;28;20232;-62
2021/12/13 08:04:56;;;;;;;1.20;1.20;;;6.10;99.90;;;;;;5053740;28;20192;-61
2021/12/13 08:07:26;;;;;;;1.03;1.03;;;6.20;99.90;;;;;;5052216;28;20212;-61
2021/12/13 08:09:56;;;;;;;1.07;1.07;;;6.30;99.90;;;;;;5053269;28;20600;-62
2021/12/13 08:12:25;;;;;;;1.07;1.07;;;6.30;99.90;;;;;;5052308;28;20319;-61
2021/12/13 08:15:06;;;;;;;1.00;1.00;;;6.30;99.90;;;;;;5042624;28;20204;-61
2021/12/13 08:17:41;;;;;;;1.17;1.10;;;6.30;99.90;;;;;;5043545;28;20343;-61
2021/12/13 08:20:12;;;;;;;1.00;1.00;;;6.40;99.90;;;;;;5048192;28;20206;-61
2021/12/13 08:22:43;;;;;;;0.90;0.90;;;6.30;99.90;;;;;;5046459;28;20256;-61
2021/12/13 08:25:17;;;;;;;0.80;0.80;;;6.40;99.90;;;;;;5038550;28;20208;-61
2021/12/13 08:27:52;;;;;;;0.90;0.90;;;6.50;99.90;;;;;;5042367;28;20202;-61
2021/12/13 08:30:23;;;;;;;1.30;1.30;;;6.50;99.90;;;;;;5042533;28;20246;-61
2021/12/13 08:33:04;;;;;;;1.20;1.20;;;6.50;99.90;;;;;;5047137;28;20653;-61
2021/12/13 08:35:51;;;;;;;1.30;1.30;;;6.50;99.90;;;;;;5037102;28;20201;-62
2021/12/13 08:38:45;;;;;;;1.40;1.40;;;6.60;99.90;;;;;;5037207;28;20691;-62
2021/12/13 08:41:27;;;;;;;1.30;1.30;;;6.60;99.90;;;;;;5036790;28;20545;-62
2021/12/13 08:43:59;;;;;;;1.27;1.27;;;6.50;99.90;;;;;;5038629;28;20219;-60
2021/12/13 08:46:41;;;;;;;1.20;1.20;;;6.40;99.90;;;;;;5044947;28;20220;-62
2021/12/13 08:49:34;;;;;;;1.20;1.10;;;6.40;99.90;;;;;;5039169;28;20210;-62
2021/12/13 08:52:12;;;;;;;1.00;1.00;;;6.50;99.90;;;;;;5039423;28;20255;-64
2021/12/13 08:54:47;;;;;;;0.93;0.93;;;6.60;99.90;;;;;;5043907;28;20201;-61
2021/12/13 08:57:34;;;;;;;0.80;0.80;;;6.70;99.90;;;;;;5040655;28;20196;-61
2021/12/13 09:00:08;;;;;;;0.80;0.80;;;6.80;99.90;;;;;;5041702;28;20286;-62
2021/12/13 09:02:41;;;;;;;1.03;1.03;;;6.90;99.90;;;;;;5038614;28;20239;-62
2021/12/13 09:05:13;;;;;;;1.23;1.13;;;7.00;99.90;;;;;;5040333;28;20648;-61
2021/12/13 09:07:48;;;;;;;1.10;1.10;;;7.20;99.90;;;;;;5043096;28;20299;-61
2021/12/13 09:10:16;;;;;;;1.47;1.23;;;7.30;99.90;;;;;;5043355;28;20675;-61
2021/12/13 09:12:45;;;;;;;1.20;1.10;;;7.40;99.90;;;;;;5045182;28;20224;-61
2021/12/13 09:15:19;;;;;;;0.93;0.93;;;7.60;99.90;;;;;;5043168;28;20307;-61
2021/12/13 09:17:50;;;;;;;1.27;1.17;;;7.70;99.90;;;;;;5046276;28;20224;-62
2021/12/13 09:20:21;;;;;;;0.80;0.80;;;7.80;99.90;;;;;;5036542;28;20280;-62
2021/12/13 09:22:51;;;;;;;0.60;0.60;;;8.00;99.90;;;;;;5036152;28;20225;-62
2021/12/13 09:25:27;;;;;;;0.70;0.70;;;8.00;99.90;;;;;;5040488;28;20235;-61
2021/12/13 09:27:59;;;;;;;0.60;0.60;;;8.10;99.90;;;;;;5037916;28;20237;-61
2021/12/13 09:30:35;;;;;;;0.60;0.60;;;8.10;99.90;;;;;;5036327;28;20287;-61
2021/12/13 09:33:07;;;;;;;0.70;0.70;;;8.20;99.90;;;;;;5036601;28;20230;-61
2021/12/13 09:35:39;;;;;;;0.80;0.80;;;8.30;99.90;;;;;;5037473;28;20204;-61
2021/12/13 09:38:23;;;;;;;0.60;0.60;;;8.30;99.90;;;;;;5037874;28;20246;-62
2021/12/13 09:40:54;;;;;;;0.80;0.80;;;8.40;99.90;;;;;;5037725;28;20231;-61
2021/12/13 09:43:22;;;;;;;0.80;0.80;;;8.30;99.90;;;;;;5036140;28;20717;-62
2021/12/13 09:45:54;;;;;;;0.80;0.80;;;8.40;99.90;;;;;;5037150;28;20351;-62
2021/12/13 09:48:26;;;;;;;0.80;0.80;;;8.40;99.90;;;;;;5036671;28;20324;-60
2021/12/13 09:50:59;;;;;;;0.80;0.80;;;8.50;99.90;;;;;;5038265;28;20732;-61
2021/12/13 09:53:31;;;;;;;0.80;0.80;;;8.50;99.90;;;;;;5037314;28;20307;-61
2021/12/13 09:56:02;;;;;;;0.53;0.53;;;8.50;99.90;;;;;;5040525;28;20223;-61
2021/12/13 09:58:37;;;;;;;0.60;0.60;;;8.60;99.90;;;;;;5038922;28;20200;-60
2021/12/13 10:01:11;;;;;;;0.63;0.63;;;8.60;99.90;;;;;;5040303;28;20295;-61
2021/12/13 10:03:48;;;;;;;0.77;0.77;;;8.80;99.90;;;;;;5040645;28;20610;-61
2021/12/13 10:06:17;;;;;;;0.50;0.50;;;8.90;99.90;;;;;;5043564;28;20243;-62
2021/12/13 10:08:49;;;;;;;0.60;0.60;;;8.90;99.90;;;;;;5047005;28;20207;-62
2021/12/13 10:11:21;;;;;;;0.50;0.50;;;9.00;99.90;;;;;;5044727;28;20197;-61
2021/12/13 10:13:50;;;;;;;0.60;0.60;;;9.00;99.90;;;;;;5044145;28;20315;-62
2021/12/13 10:16:23;;;;;;;0.50;0.50;;;9.10;99.90;;;;;;5046998;28;20197;-62
2021/12/13 10:18:53;;;;;;;0.40;0.40;;;9.20;99.90;;;;;;5052766;28;20200;-61
2021/12/13 10:21:24;;;;;;;0.50;0.50;;;9.30;99.90;;;;;;5052377;28;20592;-61
2021/12/13 10:23:53;;;;;;;0.90;0.90;;;9.40;99.90;;;;;;5055370;28;20255;-62
2021/12/13 10:26:21;;;;;;;0.50;0.50;;;9.60;99.90;;;;;;5053359;28;20347;-67
2021/12/13 10:28:55;;;;;;;0.70;0.70;;;9.60;99.90;;;;;;5054645;28;20291;-62
2021/12/13 10:31:27;;;;;;;0.70;0.70;;;9.70;99.90;;;;;;5083555;22;20230;-65
2021/12/13 10:33:58;;;;;;;2.20;2.10;;;9.70;99.90;;;;;;5071796;28;20268;-64
2021/12/13 10:36:28;;;;;;;2.67;2.50;;;9.90;99.90;;;;;;5062488;28;20283;-64
2021/12/13 10:39:01;;;;;;;1.20;1.20;;;9.60;99.90;;;;;;5066388;28;20221;-64
2021/12/13 10:41:30;;;;;;;1.10;1.10;;;9.50;99.90;;;;;;5064933;28;20506;-64
2021/12/13 10:44:01;;;;;;;0.87;0.87;;;9.50;99.90;;;;;;5069639;28;20262;-65
2021/12/13 10:46:31;;;;;;;0.77;0.77;;;9.50;99.90;;;;;;5062582;28;20310;-66
2021/12/13 10:49:05;;;;;;;9.27;8.57;;;9.40;99.90;;;;;;5070090;28;20205;-65
2021/12/13 10:51:36;;;;;;;1.30;1.30;;;9.40;99.90;;;;;;5064109;28;20230;-65
2021/12/13 10:54:09;;;;;;;1.00;1.00;;;9.40;99.90;;;;;;5061586;28;20434;-65
2021/12/13 10:56:42;;;;;;;0.97;0.97;;;9.30;99.90;;;;;;5078560;28;20187;-63
2021/12/13 10:59:12;;;;;;;1.20;1.20;;;9.20;99.90;;;;;;5074518;28;20252;-65
2021/12/13 11:01:43;;;;;;;1.10;1.10;;;9.30;99.90;;;;;;5086564;28;20255;-65
2021/12/13 11:04:17;;;;;;;1.60;1.50;;;9.30;99.90;;;;;;5083733;28;20199;-66
2021/12/13 11:06:46;;;;;;;2.93;2.73;;;9.30;99.90;;;;;;5074398;28;20255;-65
2021/12/13 11:09:16;;;;;;;2.13;2.03;;;9.30;99.90;;;;;;5066803;28;20207;-64
2021/12/13 11:11:47;;;;;;;1.43;1.40;;;9.40;99.90;;;;;;5065210;28;20204;-66
2021/12/13 11:14:20;;;;;;;1.60;1.50;;;9.30;99.90;;;;;;5065814;28;20288;-65
2021/12/13 11:16:51;;;;;;;1.50;1.40;;;9.50;99.90;;;;;;5062987;28;20673;-66
2021/12/13 11:19:23;;;;;;;2.20;2.10;;;9.40;99.90;;;;;;5064027;28;20578;-65
2021/12/13 11:21:53;;;;;;;1.03;1.03;;;9.40;99.90;;;;;;5067770;28;20217;-64
2021/12/13 11:24:23;;;;;;;1.10;1.10;;;9.30;99.90;;;;;;5065518;28;20226;-64
2021/12/13 11:26:54;;;;;;;1.17;1.17;;;9.30;99.90;;;;;;5066128;28;20307;-64
2021/12/13 11:29:21;;;;;;;2.07;1.87;;;9.40;99.90;;;;;;5061496;28;20208;-65
2021/12/13 11:32:37;;;;;;;1.50;1.40;;;9.30;99.90;;;;;;5066377;28;20341;-66
2021/12/13 11:35:57;;;;;;;1.03;1.03;;;9.40;99.90;;;;;;5068894;28;20352;-64
2021/12/13 11:38:43;;;;;;;0.97;0.97;;;9.30;99.90;;;;;;5063857;28;20279;-66
2021/12/13 11:41:34;;;;;;;1.00;1.00;;;9.20;99.90;;;;;;5062745;28;20232;-65
2021/12/13 11:44:21;;;;;;;1.40;1.30;;;9.20;99.90;;;;;;5063668;28;20195;-66
2021/12/13 11:47:37;;;;;;;1.00;1.00;;;9.20;99.90;;;;;;5065764;28;20335;-66
2021/12/13 11:50:43;;;;;;;1.10;1.10;;;9.20;99.90;;;;;;5065497;28;20266;-66
2021/12/13 11:53:31;;;;;;;1.10;1.10;;;9.20;99.90;;;;;;5060243;28;20203;-64
2021/12/13 11:56:16;;;;;;;1.10;1.10;;;9.40;99.90;;;;;;5070363;28;20253;-65
2021/12/13 11:59:20;;;;;;;1.00;1.00;;;9.20;99.90;;;;;;5070893;28;20199;-64
2021/12/13 12:02:02;;;;;;;1.13;1.13;;;9.10;99.90;;;;;;5067489;28;20203;-65
2021/12/13 12:05:15;;;;;;;1.03;1.03;;;9.10;99.90;;;;;;5070770;28;20207;-64
2021/12/13 12:08:08;;;;;;;1.40;1.40;;;9.10;99.90;;;;;;5076932;28;20226;-64
2021/12/13 12:10:53;;;;;;;1.50;1.40;;;9.20;99.90;;;;;;5069067;28;20219;-65
2021/12/13 12:13:31;;;;;;;1.50;1.40;;;9.20;99.90;;;;;;5069581;28;20230;-64
2021/12/13 12:16:02;;;;;;;1.10;1.10;;;9.20;99.90;;;;;;5064021;28;20262;-65
2021/12/13 12:18:31;;;;;;;1.40;1.40;;;9.30;99.90;;;;;;5077840;28;20196;-65
2021/12/13 12:21:30;;;;;;;1.50;1.40;;;9.20;99.90;;;;;;5074990;28;20315;-65
2021/12/13 12:23:59;;;;;;;1.37;1.30;;;9.20;99.90;;;;;;5071558;28;20279;-64
2021/12/13 12:26:28;;;;;;;1.17;1.17;;;9.30;99.90;;;;;;5074783;28;20282;-65
2021/12/13 12:28:58;;;;;;;1.23;1.23;;;9.40;99.90;;;;;;5076973;28;20223;-65
2021/12/13 12:31:30;;;;;;;1.10;1.10;;;9.30;99.90;;;;;;5077027;28;20230;-64
2021/12/13 12:34:00;;;;;;;1.00;1.00;;;9.30;99.90;;;;;;5074184;28;20211;-65
2021/12/13 12:36:47;;;;;;;1.50;1.40;;;9.40;99.90;;;;;;5073085;28;20650;-64
2021/12/13 12:39:53;;;;;;;1.30;1.20;;;9.40;99.90;;;;;;5071568;28;20199;-65
2021/12/13 12:42:32;;;;;;;1.20;1.20;;;9.50;99.90;;;;;;5069365;28;20203;-66
2021/12/13 12:45:05;;;;;;;1.10;1.10;;;9.40;99.90;;;;;;5071704;28;20224;-65
2021/12/13 12:48:09;;;;;;;1.37;1.27;;;9.40;99.90;;;;;;5072822;28;20254;-64
2021/12/13 12:50:40;;;;;;;1.27;1.10;;;9.50;99.90;;;;;;5072492;28;20708;-66
2021/12/13 12:53:12;;;;;;;1.10;1.10;;;9.50;99.90;;;;;;5075761;28;20280;-66
2021/12/13 12:55:44;;;;;;;1.10;1.10;;;9.60;99.90;;;;;;5082621;28;20287;-66
2021/12/13 12:58:16;;;;;;;1.27;1.03;;;9.70;99.90;;;;;;5076276;28;20235;-66
2021/12/13 13:00:46;;;;;;;1.07;1.07;;;9.70;99.90;;;;;;5088787;28;20226;-67
2021/12/13 13:03:23;;;;;;;1.10;1.10;;;9.80;99.90;;;;;;5073230;28;20254;-64
2021/12/13 13:05:50;;;;;;;1.20;1.20;;;9.90;99.90;;;;;;5081398;28;20781;-65
2021/12/13 13:08:28;;;;;;;1.10;1.10;;;9.90;99.90;;;;;;5087765;28;20215;-65
2021/12/13 13:11:27;;;;;;;1.00;1.00;;;9.90;99.90;;;;;;5077950;28;20254;-65
2021/12/13 13:13:53;;;;;;;1.20;1.20;;;9.90;99.90;;;;;;5075782;28;20244;-65
2021/12/13 13:16:35;;;;;;;1.00;1.00;;;9.90;99.90;;;;;;5079560;28;20210;-64
2021/12/13 13:19:07;;;;;;;1.50;1.40;;;10.00;99.90;;;;;;5064122;28;20200;-64
2021/12/13 13:21:43;;;;;;;1.60;1.50;;;10.00;99.90;;;;;;5063504;28;20224;-64
2021/12/13 13:24:10;;;;;;;1.40;1.30;;;10.00;99.90;;;;;;5054877;28;20299;-66
2021/12/13 13:26:37;;;;;;;1.50;1.40;;;10.00;99.90;;;;;;5072325;28;20199;-65
2021/12/13 13:29:11;;;;;;;1.60;1.50;;;9.90;99.90;;;;;;5103925;28;20226;-66
2021/12/13 13:31:42;;;;;;;1.60;1.33;;;9.90;99.90;;;;;;5114722;28;20234;-64
2021/12/13 13:34:11;;;;;;;1.40;1.30;;;9.90;99.90;;;;;;5111351;28;20210;-66
2021/12/13 13:36:43;;;;;;;1.50;1.40;;;9.90;99.90;;;;;;5082657;28;20262;-64